Time;durP1;ratioP1;P1;durP2;ratioP2;P2;SDS_P1;SDS_P2;PMS_P1;PMS_P2;Temp;Humidity;BMP_temperature;BMP_pressure;BME280_temperature;BME280_humidity;BME280_pressure;Samples;Min_cycle;Max_cycle;Signal;HPM_P1;HPM_P2
2023/09/28 00:02:08;;;;;;;14.93;10.47;;;16.00;99.90;;;;;;5048730;28;20485;-50
2023/09/28 00:04:34;;;;;;;16.60;10.70;;;15.90;99.90;;;;;;5053484;28;20461;-51
2023/09/28 00:07:00;;;;;;;14.83;10.90;;;15.90;99.90;;;;;;5049803;28;20488;-50
2023/09/28 00:09:27;;;;;;;12.90;10.97;;;15.90;99.90;;;;;;5050661;28;20665;-51
2023/09/28 00:11:54;;;;;;;16.40;10.37;;;15.90;99.90;;;;;;5051945;28;20882;-50
2023/09/28 00:14:20;;;;;;;12.63;10.47;;;15.80;99.90;;;;;;5054883;28;20548;-51
2023/09/28 00:16:46;;;;;;;19.77;10.63;;;15.80;99.90;;;;;;5049543;28;20458;-51
2023/09/28 00:19:13;;;;;;;13.70;10.60;;;15.80;99.90;;;;;;5051627;28;20446;-50
2023/09/28 00:21:39;;;;;;;10.97;9.57;;;15.70;99.90;;;;;;5046157;28;20477;-50
2023/09/28 00:24:09;;;;;;;12.10;10.80;;;15.70;99.90;;;;;;5058240;28;20466;-50
2023/09/28 00:26:35;;;;;;;13.40;10.60;;;15.70;99.90;;;;;;5053133;28;20218;-51
2023/09/28 00:29:03;;;;;;;25.17;10.60;;;15.70;99.90;;;;;;5052099;28;20457;-51
2023/09/28 00:31:29;;;;;;;19.70;10.33;;;15.70;99.90;;;;;;5050701;28;20234;-50
2023/09/28 00:33:56;;;;;;;18.17;12.20;;;15.70;99.90;;;;;;5059264;28;20867;-51
2023/09/28 00:36:22;;;;;;;17.90;9.90;;;15.70;99.90;;;;;;5047153;28;20622;-51
2023/09/28 00:38:48;;;;;;;14.07;10.30;;;15.60;99.90;;;;;;5054027;28;20485;-50
2023/09/28 00:41:14;;;;;;;12.53;10.00;;;15.60;99.90;;;;;;5052035;28;20564;-50
2023/09/28 00:43:42;;;;;;;13.27;10.53;;;15.60;99.90;;;;;;5051655;28;20441;-51
2023/09/28 00:46:13;;;;;;;14.50;10.30;;;15.70;99.90;;;;;;5061226;28;20522;-50
2023/09/28 00:48:51;;;;;;;13.83;11.07;;;15.70;99.90;;;;;;5055717;28;20670;-50
2023/09/28 00:51:19;;;;;;;14.53;11.17;;;15.70;99.90;;;;;;5048490;28;20535;-52
2023/09/28 00:53:45;;;;;;;16.50;12.33;;;15.70;99.90;;;;;;5052409;28;20453;-50
2023/09/28 00:56:12;;;;;;;18.70;11.30;;;15.70;99.90;;;;;;5051052;28;21030;-50
2023/09/28 00:58:39;;;;;;;14.37;10.70;;;15.60;99.90;;;;;;5049404;28;20445;-52
2023/09/28 01:01:06;;;;;;;19.03;10.73;;;15.60;99.90;;;;;;5051821;28;20568;-51
2023/09/28 01:03:34;;;;;;;15.73;11.20;;;15.70;99.90;;;;;;5049910;28;20887;-50
2023/09/28 01:06:00;;;;;;;13.13;10.90;;;15.70;99.90;;;;;;5050323;28;20450;-51
2023/09/28 01:08:27;;;;;;;12.43;10.67;;;15.70;99.90;;;;;;5049825;28;20493;-51
2023/09/28 01:10:52;;;;;;;18.20;10.43;;;15.70;99.90;;;;;;5050681;28;20231;-50
2023/09/28 01:13:20;;;;;;;20.03;10.70;;;15.60;99.90;;;;;;5049509;28;20454;-51
2023/09/28 01:15:47;;;;;;;25.33;10.57;;;15.70;99.90;;;;;;5050300;28;20209;-51
2023/09/28 01:18:16;;;;;;;13.40;10.60;;;15.70;99.90;;;;;;5044557;28;20442;-51
2023/09/28 01:20:44;;;;;;;17.47;10.80;;;15.70;99.90;;;;;;5048777;28;20544;-50
2023/09/28 01:23:13;;;;;;;12.30;10.87;;;15.70;99.90;;;;;;5047575;28;20461;-50
2023/09/28 01:25:39;;;;;;;16.63;10.63;;;15.70;99.90;;;;;;5053675;28;20857;-51
2023/09/28 01:28:06;;;;;;;22.23;11.10;;;15.70;99.90;;;;;;5052070;28;21005;-51
2023/09/28 01:30:32;;;;;;;13.63;11.00;;;15.70;99.90;;;;;;5045079;28;20908;-52
2023/09/28 01:32:59;;;;;;;13.30;9.50;;;15.60;99.90;;;;;;5056028;28;20499;-51
2023/09/28 01:35:26;;;;;;;16.13;10.90;;;15.60;99.90;;;;;;5057500;28;20936;-50
2023/09/28 01:38:00;;;;;;;16.43;11.50;;;15.60;99.90;;;;;;5052134;28;20847;-52
2023/09/28 01:40:27;;;;;;;21.13;11.13;;;15.60;99.90;;;;;;5049077;28;20503;-50
2023/09/28 01:42:54;;;;;;;18.97;11.30;;;15.60;99.90;;;;;;5055276;28;20496;-51
2023/09/28 01:45:20;;;;;;;11.57;10.07;;;15.70;99.90;;;;;;5057577;28;20457;-50
2023/09/28 01:47:46;;;;;;;13.90;10.27;;;15.70;99.90;;;;;;5047801;28;21056;-50
2023/09/28 01:50:12;;;;;;;10.63;9.47;;;15.70;99.90;;;;;;5053607;28;20226;-50
2023/09/28 01:52:38;;;;;;;20.77;10.53;;;15.80;99.90;;;;;;5052451;28;20524;-51
2023/09/28 01:55:05;;;;;;;16.93;10.20;;;15.80;99.90;;;;;;5056993;28;20195;-50
2023/09/28 01:57:32;;;;;;;16.00;10.30;;;15.80;99.90;;;;;;5064236;28;20433;-51
2023/09/28 01:59:59;;;;;;;16.87;11.37;;;15.80;99.90;;;;;;5055133;28;20461;-51
2023/09/28 02:02:26;;;;;;;12.03;9.80;;;15.90;99.90;;;;;;5058641;28;20522;-51
2023/09/28 02:04:52;;;;;;;18.73;11.37;;;15.80;99.90;;;;;;5051678;28;21138;-51
2023/09/28 02:07:18;;;;;;;13.27;11.07;;;15.80;99.90;;;;;;5048189;28;20478;-50
2023/09/28 02:09:44;;;;;;;12.47;10.40;;;15.80;99.90;;;;;;5052633;28;20273;-50
2023/09/28 02:12:12;;;;;;;15.80;10.67;;;15.80;99.90;;;;;;5051389;28;20473;-50
2023/09/28 02:14:39;;;;;;;11.33;10.13;;;15.80;99.90;;;;;;5052191;28;20202;-50
2023/09/28 02:17:06;;;;;;;23.57;10.50;;;15.80;99.90;;;;;;5049761;28;20503;-51
2023/09/28 02:19:31;;;;;;;12.17;10.60;;;15.80;99.90;;;;;;5044744;28;20457;-50
2023/09/28 02:21:58;;;;;;;16.13;10.40;;;15.80;99.90;;;;;;5056385;28;21048;-49
2023/09/28 02:24:24;;;;;;;22.23;10.97;;;15.80;99.90;;;;;;5053791;28;20199;-50
2023/09/28 02:26:53;;;;;;;15.97;11.27;;;15.80;99.90;;;;;;5055845;28;20880;-51
2023/09/28 02:29:19;;;;;;;16.47;11.27;;;15.80;97.40;;;;;;5054399;28;20199;-50
2023/09/28 02:31:48;;;;;;;15.63;10.00;;;15.80;84.20;;;;;;5051619;28;20568;-51
2023/09/28 02:34:13;;;;;;;19.63;11.27;;;15.80;73.00;;;;;;5052785;28;20280;-51
2023/09/28 02:36:40;;;;;;;16.57;10.47;;;15.70;20.90;;;;;;5052707;28;20958;-50
2023/09/28 02:39:07;;;;;;;12.47;10.00;;;15.70;20.70;;;;;;5053762;28;20203;-50
2023/09/28 02:41:34;;;;;;;21.97;10.90;;;15.70;20.20;;;;;;5052637;28;20592;-50
2023/09/28 02:43:59;;;;;;;24.93;11.53;;;15.60;73.20;;;;;;5052082;28;20470;-51
2023/09/28 02:46:26;;;;;;;15.17;11.40;;;15.60;73.20;;;;;;5057313;28;20456;-50
2023/09/28 02:48:55;;;;;;;14.03;9.93;;;15.60;79.40;;;;;;5053417;28;20255;-50
2023/09/28 02:51:22;;;;;;;20.87;10.70;;;15.60;82.50;;;;;;5061645;28;20561;-50
2023/09/28 02:53:47;;;;;;;15.63;11.13;;;15.50;82.70;;;;;;5052157;28;20544;-50
2023/09/28 02:56:14;;;;;;;13.80;10.70;;;15.50;82.60;;;;;;5051437;28;20541;-50
2023/09/28 02:58:40;;;;;;;15.83;10.87;;;15.50;82.60;;;;;;5053667;28;20199;-50
2023/09/28 03:01:08;;;;;;;11.50;10.07;;;15.50;85.50;;;;;;5056927;28;20539;-51
2023/09/28 03:03:33;;;;;;;16.47;10.23;;;15.50;82.30;;;;;;5050099;28;20460;-50
2023/09/28 03:06:04;;;;;;;17.43;11.90;;;15.40;83.20;;;;;;5057773;28;20449;-51
2023/09/28 03:08:30;;;;;;;16.70;10.17;;;15.40;73.90;;;;;;5054524;28;20219;-51
2023/09/28 03:10:58;;;;;;;19.80;10.40;;;15.50;20.90;;;;;;5051592;28;20497;-50
2023/09/28 03:13:25;;;;;;;24.10;10.13;;;15.50;22.40;;;;;;5056781;28;20450;-50
2023/09/28 03:15:51;;;;;;;33.07;11.20;;;15.50;24.30;;;;;;5056484;28;20540;-51
2023/09/28 03:18:17;;;;;;;14.17;10.73;;;15.50;25.20;;;;;;5053710;28;20516;-50
2023/09/28 03:20:45;;;;;;;13.73;10.53;;;15.40;25.60;;;;;;5053038;28;20470;-51
2023/09/28 03:23:13;;;;;;;24.10;10.77;;;15.40;25.00;;;;;;5052907;28;20658;-51
2023/09/28 03:25:39;;;;;;;13.00;9.90;;;15.40;26.00;;;;;;5048842;28;20512;-50
2023/09/28 03:28:06;;;;;;;12.80;9.43;;;15.40;27.00;;;;;;5045209;28;20477;-51
2023/09/28 03:30:32;;;;;;;15.47;10.80;;;15.40;27.20;;;;;;5048886;28;20481;-50
2023/09/28 03:32:59;;;;;;;16.23;9.30;;;15.40;27.80;;;;;;5051231;28;20542;-50
2023/09/28 03:35:26;;;;;;;13.93;11.00;;;15.40;28.50;;;;;;5053940;28;20487;-50
2023/09/28 03:37:55;;;;;;;20.23;10.90;;;15.40;30.80;;;;;;5055929;28;22112;-51
2023/09/28 03:40:23;;;;;;;14.80;10.60;;;15.40;33.40;;;;;;5054559;28;21075;-50
2023/09/28 03:42:50;;;;;;;26.93;11.37;;;15.40;35.00;;;;;;5047051;28;20947;-51
2023/09/28 03:45:20;;;;;;;16.43;10.27;;;15.40;35.80;;;;;;5051717;28;20507;-49
2023/09/28 03:47:48;;;;;;;16.10;10.37;;;15.40;36.60;;;;;;5050572;28;20569;-51
2023/09/28 03:50:15;;;;;;;12.70;9.93;;;15.40;37.80;;;;;;5052616;28;20470;-51
2023/09/28 03:52:42;;;;;;;13.70;10.27;;;15.30;35.40;;;;;;5050547;28;20461;-51
2023/09/28 03:55:10;;;;;;;18.80;11.00;;;15.30;34.60;;;;;;5053091;28;20461;-50
2023/09/28 03:57:38;;;;;;;33.27;12.00;;;15.20;34.00;;;;;;5042787;28;20461;-50
2023/09/28 04:00:08;;;;;;;21.07;10.63;;;15.20;33.50;;;;;;5050481;28;20527;-50
2023/09/28 04:02:35;;;;;;;20.63;11.63;;;15.20;32.90;;;;;;5046863;28;20464;-51
2023/09/28 04:05:02;;;;;;;13.93;10.27;;;15.20;34.50;;;;;;5051149;28;20552;-50
2023/09/28 04:07:29;;;;;;;18.17;10.40;;;15.20;33.20;;;;;;5050625;28;20497;-51
2023/09/28 04:09:55;;;;;;;31.40;11.60;;;15.10;31.90;;;;;;5055662;28;20820;-50
2023/09/28 04:12:22;;;;;;;16.50;9.83;;;15.10;28.00;;;;;;5056829;28;20538;-51
2023/09/28 04:14:50;;;;;;;16.53;11.30;;;15.10;27.70;;;;;;5046068;28;21020;-51
2023/09/28 04:17:17;;;;;;;11.00;9.87;;;15.00;27.60;;;;;;5047354;28;20800;-50
2023/09/28 04:19:44;;;;;;;13.13;10.50;;;15.00;27.90;;;;;;5047914;28;20454;-50
2023/09/28 04:22:11;;;;;;;17.40;10.80;;;15.00;22.40;;;;;;5048701;28;20477;-50
2023/09/28 04:24:37;;;;;;;11.97;9.93;;;14.90;22.60;;;;;;5051663;28;20458;-51
2023/09/28 04:27:04;;;;;;;16.87;11.40;;;14.90;24.00;;;;;;5050075;28;20691;-50
2023/09/28 04:29:31;;;;;;;11.80;10.60;;;14.90;21.90;;;;;;5050173;28;20497;-50
2023/09/28 04:31:59;;;;;;;28.23;12.03;;;14.90;20.90;;;;;;5061165;22;20490;-52
2023/09/28 04:34:25;;;;;;;21.27;11.30;;;14.90;22.50;;;;;;5010393;28;20956;-52
2023/09/28 04:36:52;;;;;;;20.40;11.00;;;14.90;24.10;;;;;;5008496;28;20546;-51
2023/09/28 04:39:23;;;;;;;17.00;12.33;;;14.80;24.80;;;;;;5004141;28;20480;-51
2023/09/28 04:41:50;;;;;;;16.87;11.90;;;14.80;24.10;;;;;;5005511;28;20475;-52
2023/09/28 04:44:16;;;;;;;15.33;10.00;;;14.80;22.40;;;;;;4988977;28;21012;-52
2023/09/28 04:46:43;;;;;;;12.03;10.83;;;14.80;22.30;;;;;;4988523;28;20460;-51
2023/09/28 04:49:11;;;;;;;13.83;11.27;;;14.80;22.10;;;;;;4989106;28;20535;-52
2023/09/28 04:51:37;;;;;;;16.77;11.27;;;14.80;20.70;;;;;;4987280;28;20495;-51
2023/09/28 04:54:05;;;;;;;12.83;10.73;;;14.80;23.40;;;;;;4991733;28;20476;-52
2023/09/28 04:56:32;;;;;;;13.50;11.20;;;14.70;23.50;;;;;;4997616;28;20478;-51
2023/09/28 04:58:59;;;;;;;15.87;11.50;;;14.70;22.70;;;;;;4987638;28;20558;-52
2023/09/28 05:01:25;;;;;;;14.60;10.60;;;14.70;21.70;;;;;;4984321;28;20970;-52
2023/09/28 05:03:53;;;;;;;20.03;11.13;;;14.70;73.60;;;;;;4984379;28;20488;-52
2023/09/28 05:06:21;;;;;;;12.73;10.63;;;14.60;82.50;;;;;;4985131;28;20499;-51
2023/09/28 05:08:47;;;;;;;12.93;10.60;;;14.60;84.30;;;;;;4984816;28;20492;-53
2023/09/28 05:11:14;;;;;;;19.13;11.77;;;14.60;89.10;;;;;;4988501;28;20523;-52
2023/09/28 05:13:40;;;;;;;14.53;10.80;;;14.60;84.20;;;;;;4984884;28;22709;-52
2023/09/28 05:16:07;;;;;;;13.50;10.70;;;14.60;87.40;;;;;;4986824;28;20523;-51
2023/09/28 05:18:34;;;;;;;21.10;11.37;;;14.60;81.90;;;;;;4988793;28;20514;-51
2023/09/28 05:21:01;;;;;;;12.77;10.43;;;14.60;80.80;;;;;;4993150;28;20562;-52
2023/09/28 05:23:29;;;;;;;24.27;11.27;;;14.60;78.80;;;;;;4993958;28;20484;-52
2023/09/28 05:25:56;;;;;;;21.23;10.97;;;14.60;21.50;;;;;;4995119;28;20542;-52
2023/09/28 05:28:23;;;;;;;17.97;10.80;;;14.60;21.00;;;;;;4987195;28;20489;-52
2023/09/28 05:30:49;;;;;;;23.73;12.10;;;14.70;21.80;;;;;;4979498;28;21116;-51
2023/09/28 05:33:16;;;;;;;19.50;11.50;;;14.70;24.10;;;;;;4993302;28;20520;-52
2023/09/28 05:35:43;;;;;;;15.47;11.70;;;14.70;25.50;;;;;;4987900;28;20486;-52
2023/09/28 05:38:10;;;;;;;13.53;10.60;;;14.70;26.10;;;;;;4988149;28;20492;-52
2023/09/28 05:40:38;;;;;;;17.90;10.87;;;14.80;27.40;;;;;;4989032;28;20531;-51
2023/09/28 05:43:05;;;;;;;18.20;11.73;;;14.80;28.00;;;;;;4991513;28;20495;-52
2023/09/28 05:45:32;;;;;;;22.63;11.50;;;14.80;28.50;;;;;;4994758;28;20460;-52
2023/09/28 05:47:59;;;;;;;16.97;10.87;;;14.90;29.90;;;;;;4995040;28;20463;-51
2023/09/28 05:50:26;;;;;;;32.27;12.30;;;14.90;33.30;;;;;;4991001;28;20476;-51
2023/09/28 05:52:55;;;;;;;20.40;11.43;;;15.00;33.20;;;;;;4992542;28;20534;-51
2023/09/28 05:55:22;;;;;;;25.73;11.00;;;15.00;36.50;;;;;;4993580;28;20471;-51
2023/09/28 05:57:50;;;;;;;15.30;11.00;;;15.10;36.50;;;;;;4993025;28;20551;-50
2023/09/28 06:00:18;;;;;;;15.80;11.40;;;15.10;36.10;;;;;;4991830;28;20468;-50
2023/09/28 06:02:44;;;;;;;15.43;11.77;;;15.10;37.50;;;;;;4994286;28;20488;-50
2023/09/28 06:05:11;;;;;;;17.30;11.37;;;15.10;39.40;;;;;;4993519;28;20962;-51
2023/09/28 06:07:38;;;;;;;15.73;11.40;;;15.20;40.20;;;;;;4990416;28;20472;-50
2023/09/28 06:10:08;;;;;;;16.43;11.83;;;15.30;39.40;;;;;;4989325;28;20489;-51
2023/09/28 06:12:34;;;;;;;20.10;13.63;;;15.30;45.30;;;;;;4993298;28;20492;-51
2023/09/28 06:15:04;;;;;;;23.87;16.30;;;15.40;50.80;;;;;;4993945;28;20946;-50
2023/09/28 06:17:30;;;;;;;23.60;21.20;;;15.40;49.40;;;;;;4990911;28;20464;-51
2023/09/28 06:19:57;;;;;;;31.43;13.43;;;15.50;51.30;;;;;;4989641;28;20601;-49
2023/09/28 06:22:23;;;;;;;20.87;12.67;;;15.60;56.30;;;;;;4992312;28;20500;-50
2023/09/28 06:24:50;;;;;;;18.17;10.97;;;15.60;55.10;;;;;;4986344;28;20519;-50
2023/09/28 06:27:17;;;;;;;17.00;13.57;;;15.70;52.70;;;;;;4985888;28;20449;-50
2023/09/28 06:29:44;;;;;;;16.50;11.00;;;15.70;52.80;;;;;;4993673;28;20499;-51
2023/09/28 06:32:12;;;;;;;13.70;11.43;;;15.80;53.50;;;;;;4992356;28;20596;-50
2023/09/28 06:34:39;;;;;;;15.70;12.23;;;15.80;55.80;;;;;;4993468;28;20464;-51
2023/09/28 06:37:05;;;;;;;20.00;13.13;;;15.80;56.80;;;;;;4993322;28;21036;-50
2023/09/28 06:39:32;;;;;;;32.17;11.70;;;15.90;56.60;;;;;;4990898;28;20879;-50
2023/09/28 06:41:59;;;;;;;23.00;12.37;;;15.90;56.40;;;;;;4994350;28;20507;-50
2023/09/28 06:44:26;;;;;;;21.93;12.63;;;16.00;64.00;;;;;;4991395;28;20470;-50
2023/09/28 06:46:53;;;;;;;25.83;12.37;;;16.00;64.20;;;;;;4994310;28;20449;-51
2023/09/28 06:49:21;;;;;;;21.47;13.33;;;16.10;64.30;;;;;;4992461;28;20492;-51
2023/09/28 06:51:48;;;;;;;17.13;12.77;;;16.20;68.20;;;;;;4991692;28;20958;-51
2023/09/28 06:54:15;;;;;;;24.90;12.53;;;16.20;68.30;;;;;;4985906;28;20468;-51
2023/09/28 06:56:41;;;;;;;20.20;12.37;;;16.30;68.80;;;;;;4986777;28;20536;-51
2023/09/28 06:59:08;;;;;;;25.77;12.30;;;16.40;71.80;;;;;;4991628;28;20456;-52
2023/09/28 07:01:35;;;;;;;21.73;13.30;;;16.50;77.60;;;;;;4991143;28;20456;-51
2023/09/28 07:04:02;;;;;;;34.93;13.00;;;16.50;76.60;;;;;;4991368;28;20480;-52
2023/09/28 07:06:29;;;;;;;26.13;12.23;;;16.60;77.40;;;;;;4989998;28;20456;-52
2023/09/28 07:08:57;;;;;;;17.73;12.50;;;16.70;77.20;;;;;;4989385;28;21059;-51
2023/09/28 07:11:24;;;;;;;40.73;12.90;;;16.80;77.60;;;;;;4990863;28;20464;-52
2023/09/28 07:13:50;;;;;;;18.60;13.10;;;16.80;80.70;;;;;;4991178;28;20484;-51
2023/09/28 07:16:17;;;;;;;18.33;12.87;;;16.90;82.00;;;;;;4990767;28;20460;-52
2023/09/28 07:18:43;;;;;;;25.63;13.30;;;17.00;84.10;;;;;;4985327;28;20456;-52
2023/09/28 07:21:10;;;;;;;19.63;13.60;;;17.00;83.00;;;;;;4988467;28;20821;-52
2023/09/28 07:23:41;;;;;;;20.37;14.27;;;17.10;86.20;;;;;;4985273;28;20476;-51
2023/09/28 07:26:14;;;;;;;22.57;13.80;;;17.20;94.40;;;;;;4990656;28;20461;-52
2023/09/28 07:28:41;;;;;;;23.40;13.60;;;17.30;94.90;;;;;;4990895;28;20476;-51
2023/09/28 07:31:08;;;;;;;18.70;13.23;;;17.40;94.80;;;;;;4988912;28;20465;-51
2023/09/28 07:33:36;;;;;;;17.33;12.43;;;17.50;99.00;;;;;;4982618;28;20511;-51
2023/09/28 07:36:05;;;;;;;19.63;13.00;;;17.50;99.00;;;;;;4997936;28;20515;-50
2023/09/28 07:38:32;;;;;;;19.23;12.60;;;17.70;97.90;;;;;;4992820;28;20476;-51
2023/09/28 07:41:00;;;;;;;25.67;13.47;;;17.80;93.90;;;;;;4989367;28;20925;-51
2023/09/28 07:43:27;;;;;;;23.93;13.03;;;17.90;96.70;;;;;;4991189;28;20905;-51
2023/09/28 07:45:54;;;;;;;18.63;12.97;;;18.00;99.30;;;;;;4986386;28;20976;-52
2023/09/28 07:48:20;;;;;;;30.43;13.53;;;18.00;99.90;;;;;;4999588;28;20469;-50
2023/09/28 07:50:47;;;;;;;17.97;12.03;;;18.20;99.90;;;;;;4994511;28;20484;-51
2023/09/28 07:53:14;;;;;;;20.63;12.47;;;18.30;99.90;;;;;;4989463;28;20499;-52
2023/09/28 07:55:41;;;;;;;32.17;13.30;;;18.40;99.90;;;;;;4991598;28;20457;-51
2023/09/28 07:58:09;;;;;;;23.73;12.67;;;18.60;99.90;;;;;;4992317;28;20464;-51
2023/09/28 08:00:36;;;;;;;20.40;13.27;;;18.70;99.90;;;;;;4990098;28;20460;-51
2023/09/28 08:03:04;;;;;;;19.43;11.90;;;18.80;99.90;;;;;;4991087;28;20636;-51
2023/09/28 08:05:31;;;;;;;14.60;12.20;;;18.90;99.90;;;;;;4990112;28;20492;-51
2023/09/28 08:07:58;;;;;;;15.50;11.80;;;19.00;99.90;;;;;;4992118;28;20464;-52
2023/09/28 08:10:25;;;;;;;19.50;11.70;;;19.10;99.90;;;;;;4992449;28;21093;-50
2023/09/28 08:12:51;;;;;;;22.83;12.17;;;19.30;99.90;;;;;;4992571;28;20461;-51
2023/09/28 08:15:19;;;;;;;24.80;11.03;;;19.50;99.90;;;;;;4991020;28;20962;-50
2023/09/28 08:17:47;;;;;;;19.23;11.30;;;19.60;99.90;;;;;;4991253;28;20487;-51
2023/09/28 08:20:15;;;;;;;20.90;11.93;;;19.70;99.90;;;;;;4988230;28;20543;-51
2023/09/28 08:22:41;;;;;;;23.23;11.37;;;19.80;99.90;;;;;;4992607;28;20475;-51
2023/09/28 08:25:09;;;;;;;18.83;12.00;;;20.00;99.90;;;;;;4990343;28;20901;-51
2023/09/28 08:27:35;;;;;;;16.37;10.80;;;20.10;99.90;;;;;;4990105;28;20465;-51
2023/09/28 08:30:02;;;;;;;14.63;10.80;;;20.20;99.90;;;;;;4991130;28;20496;-51
2023/09/28 08:32:30;;;;;;;21.73;11.00;;;20.40;99.90;;;;;;4991322;28;20496;-51
2023/09/28 08:34:57;;;;;;;20.10;11.20;;;20.40;99.90;;;;;;4991566;28;20471;-51
2023/09/28 08:37:24;;;;;;;17.53;10.67;;;20.50;99.90;;;;;;4991821;28;20468;-52
2023/09/28 08:39:51;;;;;;;20.00;10.50;;;20.70;99.90;;;;;;4997479;28;20445;-51
2023/09/28 08:42:23;;;;;;;14.40;9.83;;;20.70;99.90;;;;;;4990944;28;20480;-51
2023/09/28 08:44:53;;;;;;;15.83;10.43;;;20.90;99.90;;;;;;4990495;28;20574;-52
2023/09/28 08:47:21;;;;;;;11.57;9.20;;;20.90;99.90;;;;;;4990975;28;20464;-51
2023/09/28 08:49:51;;;;;;;19.33;10.57;;;20.90;99.90;;;;;;4989767;28;20484;-50
2023/09/28 08:52:19;;;;;;;14.77;10.10;;;21.00;99.90;;;;;;4992095;28;20496;-51
2023/09/28 08:54:45;;;;;;;16.47;9.60;;;21.10;99.90;;;;;;4990282;28;20556;-51
2023/09/28 08:57:12;;;;;;;20.30;10.30;;;21.50;99.90;;;;;;4985853;28;20480;-51
2023/09/28 08:59:41;;;;;;;15.03;9.37;;;21.60;92.00;;;;;;4990863;28;20881;-51
2023/09/28 09:02:10;;;;;;;23.80;10.47;;;21.80;90.00;;;;;;4989883;28;21088;-51
2023/09/28 09:04:37;;;;;;;11.50;8.70;;;21.90;30.30;;;;;;4991292;28;20464;-50
2023/09/28 09:07:05;;;;;;;15.17;9.40;;;21.90;30.60;;;;;;4990589;28;20523;-51
2023/09/28 09:09:35;;;;;;;21.93;9.63;;;22.00;34.00;;;;;;4991460;28;20519;-51
2023/09/28 09:12:07;;;;;;;20.70;8.37;;;22.00;41.50;;;;;;4989740;28;20465;-51
2023/09/28 09:14:33;;;;;;;15.23;9.87;;;22.20;34.40;;;;;;4989921;28;20522;-51
2023/09/28 09:17:00;;;;;;;16.63;9.10;;;22.30;36.20;;;;;;4990563;28;20472;-51
2023/09/28 09:19:30;;;;;;;14.90;9.80;;;22.50;42.80;;;;;;4987123;28;20464;-51
2023/09/28 09:21:57;;;;;;;17.40;9.10;;;22.60;59.30;;;;;;4988726;28;20950;-52
2023/09/28 09:24:25;;;;;;;15.07;8.77;;;22.70;71.20;;;;;;4987663;28;20526;-51
2023/09/28 09:26:53;;;;;;;15.27;8.73;;;22.80;68.40;;;;;;4989821;28;21014;-51
2023/09/28 09:29:22;;;;;;;10.30;8.70;;;22.90;69.20;;;;;;4988572;28;20563;-50
2023/09/28 09:31:50;;;;;;;14.80;8.63;;;22.90;79.80;;;;;;4990208;28;20955;-51
2023/09/28 09:34:18;;;;;;;23.27;9.00;;;22.90;80.20;;;;;;4988070;28;20478;-51
2023/09/28 09:36:51;;;;;;;13.67;8.97;;;22.90;79.90;;;;;;4990376;28;20479;-51
2023/09/28 09:39:23;;;;;;;18.70;10.00;;;23.10;79.00;;;;;;4988172;28;21471;-51
2023/09/28 09:41:51;;;;;;;23.67;9.17;;;23.20;81.30;;;;;;4988808;28;20471;-51
2023/09/28 09:44:19;;;;;;;13.03;9.30;;;23.50;88.30;;;;;;4986594;28;20508;-50
2023/09/28 09:46:48;;;;;;;12.50;8.37;;;23.60;86.30;;;;;;4991537;28;20514;-51
2023/09/28 09:49:16;;;;;;;16.53;9.43;;;23.60;87.60;;;;;;4989787;28;20464;-51
2023/09/28 09:51:46;;;;;;;19.47;9.53;;;23.50;90.40;;;;;;4989074;28;20471;-51
2023/09/28 09:54:14;;;;;;;14.57;8.60;;;23.70;94.00;;;;;;4990076;28;20954;-51
2023/09/28 09:56:44;;;;;;;17.47;8.17;;;24.70;99.90;;;;;;4987755;28;20464;-50
2023/09/28 09:59:12;;;;;;;18.50;8.83;;;25.90;99.90;;;;;;4986771;28;20817;-52
2023/09/28 10:01:41;;;;;;;11.73;8.00;;;26.10;99.90;;;;;;4991409;28;20470;-51
2023/09/28 10:04:12;;;;;;;14.17;8.23;;;26.20;99.90;;;;;;4987092;28;20484;-51
2023/09/28 10:06:40;;;;;;;14.37;8.70;;;26.70;99.90;;;;;;4991536;28;20460;-51
2023/09/28 10:09:10;;;;;;;8.77;7.50;;;26.00;99.90;;;;;;4992292;28;20464;-50
2023/09/28 10:11:39;;;;;;;14.67;8.10;;;25.20;99.90;;;;;;4993152;28;20507;-51
2023/09/28 10:14:05;;;;;;;18.30;8.97;;;25.30;99.90;;;;;;4995060;28;20460;-51
2023/09/28 10:16:35;;;;;;;22.63;7.60;;;24.60;99.90;;;;;;4993727;28;20477;-51
2023/09/28 10:19:04;;;;;;;18.23;7.97;;;24.90;99.90;;;;;;4993043;28;20471;-51
2023/09/28 10:21:35;;;;;;;10.60;7.63;;;24.90;99.90;;;;;;4994179;28;20880;-51
2023/09/28 10:24:08;;;;;;;18.70;7.23;;;24.90;99.90;;;;;;4993055;28;20981;-51
2023/09/28 10:26:36;;;;;;;16.37;7.00;;;24.90;99.90;;;;;;4993441;28;20548;-51
2023/09/28 10:29:04;;;;;;;19.00;7.30;;;24.80;99.90;;;;;;4993809;28;20946;-51
2023/09/28 10:31:34;;;;;;;6.97;6.27;;;25.10;99.90;;;;;;4992907;28;20502;-51
2023/09/28 10:34:02;;;;;;;12.73;6.67;;;25.70;99.90;;;;;;4990658;28;21091;-51
2023/09/28 10:36:30;;;;;;;14.77;7.17;;;25.40;99.90;;;;;;4989997;28;20469;-51
2023/09/28 10:39:14;;;;;;;9.80;6.80;;;25.10;99.90;;;;;;4992842;28;20468;-51
2023/09/28 10:41:45;;;;;;;10.23;7.67;;;24.90;99.90;;;;;;4994234;28;20441;-52
2023/09/28 10:44:13;;;;;;;11.93;6.90;;;24.50;99.90;;;;;;4992258;28;20879;-51
2023/09/28 10:46:42;;;;;;;15.40;7.10;;;24.40;99.90;;;;;;4991483;28;20468;-51
2023/09/28 10:49:10;;;;;;;10.50;6.70;;;24.40;99.90;;;;;;4993865;28;20845;-51
2023/09/28 10:51:37;;;;;;;10.50;6.97;;;24.30;99.90;;;;;;4991065;28;20492;-51
2023/09/28 10:54:06;;;;;;;14.83;6.63;;;24.20;99.90;;;;;;4992412;28;20477;-51
2023/09/28 10:56:33;;;;;;;10.90;7.10;;;24.10;99.90;;;;;;4992445;28;20452;-51
2023/09/28 10:59:01;;;;;;;12.13;6.10;;;24.20;99.90;;;;;;4989980;28;20464;-51
2023/09/28 11:01:28;;;;;;;10.27;6.23;;;24.10;99.90;;;;;;4990945;28;20453;-51
2023/09/28 11:03:56;;;;;;;8.10;7.30;;;24.20;99.90;;;;;;4992537;28;20488;-51
2023/09/28 11:06:22;;;;;;;11.50;6.30;;;24.20;99.90;;;;;;4990816;28;20464;-51
2023/09/28 11:08:49;;;;;;;10.50;5.90;;;24.20;99.90;;;;;;4992835;28;20536;-51
2023/09/28 11:11:17;;;;;;;18.53;7.30;;;24.30;99.90;;;;;;4991379;28;20488;-51
2023/09/28 11:13:44;;;;;;;15.63;7.00;;;24.40;99.90;;;;;;4993807;28;20468;-51
2023/09/28 11:16:11;;;;;;;16.23;5.90;;;24.50;99.90;;;;;;4990467;28;20461;-52
2023/09/28 11:18:38;;;;;;;13.00;6.70;;;24.50;99.90;;;;;;4993449;28;20452;-51
2023/09/28 11:21:07;;;;;;;11.70;6.57;;;24.60;99.90;;;;;;4991802;28;20453;-51
2023/09/28 11:23:34;;;;;;;8.37;5.87;;;24.60;99.90;;;;;;4988393;28;20543;-52
2023/09/28 11:26:01;;;;;;;16.50;6.70;;;24.70;99.90;;;;;;4993481;28;20480;-51
2023/09/28 11:28:29;;;;;;;14.83;5.80;;;24.90;99.90;;;;;;4991159;28;21009;-51
2023/09/28 11:31:09;;;;;;;11.33;5.00;;;24.90;99.90;;;;;;4992270;28;20997;-51
2023/09/28 11:33:36;;;;;;;7.60;5.13;;;24.90;99.90;;;;;;4992494;28;20514;-52
2023/09/28 11:36:04;;;;;;;8.33;5.10;;;24.90;99.90;;;;;;4987242;28;20452;-51
2023/09/28 11:38:32;;;;;;;9.23;5.50;;;25.00;99.90;;;;;;4993566;28;20539;-51
2023/09/28 11:40:59;;;;;;;9.07;5.40;;;25.10;99.90;;;;;;4993087;28;20456;-52
2023/09/28 11:43:26;;;;;;;20.93;5.40;;;25.20;99.90;;;;;;4992501;28;20538;-51
2023/09/28 11:45:53;;;;;;;6.97;6.03;;;25.20;99.90;;;;;;4991764;28;20441;-51
2023/09/28 11:48:20;;;;;;;10.70;6.00;;;25.10;99.90;;;;;;4992574;28;20530;-51
2023/09/28 11:50:47;;;;;;;7.33;5.50;;;25.10;99.90;;;;;;4992345;28;20488;-51
2023/09/28 11:53:15;;;;;;;7.90;5.40;;;24.90;99.90;;;;;;4993004;28;20476;-51
2023/09/28 11:55:46;;;;;;;14.83;5.83;;;24.80;99.90;;;;;;4992712;28;20445;-51
2023/09/28 11:58:20;;;;;;;18.53;5.90;;;24.80;99.90;;;;;;4991417;28;21289;-51
2023/09/28 12:00:46;;;;;;;8.40;4.87;;;24.80;99.90;;;;;;4991969;28;20461;-52
2023/09/28 12:03:13;;;;;;;19.93;5.70;;;24.70;99.90;;;;;;4988008;28;20476;-52
2023/09/28 12:05:40;;;;;;;16.17;6.43;;;24.70;99.90;;;;;;4989276;28;20465;-51
2023/09/28 12:08:07;;;;;;;9.03;5.37;;;24.60;99.90;;;;;;4991046;28;20696;-51
2023/09/28 12:10:34;;;;;;;13.63;5.40;;;24.60;99.90;;;;;;4985223;28;20476;-51
2023/09/28 12:13:02;;;;;;;8.03;5.80;;;24.60;99.90;;;;;;4990048;28;20847;-51
2023/09/28 12:15:30;;;;;;;15.53;5.47;;;24.60;99.90;;;;;;4990537;28;20516;-50
2023/09/28 12:17:56;;;;;;;7.63;5.67;;;24.60;99.90;;;;;;4987635;28;20464;-52
2023/09/28 12:20:23;;;;;;;9.80;4.67;;;24.60;99.90;;;;;;4988735;28;20460;-51
2023/09/28 12:22:51;;;;;;;11.73;5.30;;;24.60;99.90;;;;;;4989751;28;21005;-50
2023/09/28 12:25:18;;;;;;;10.37;5.43;;;24.60;99.90;;;;;;4990996;28;20516;-51
2023/09/28 12:27:44;;;;;;;8.30;4.93;;;24.60;99.90;;;;;;4991052;28;20510;-53
2023/09/28 12:30:18;;;;;;;8.30;6.47;;;24.60;99.90;;;;;;4984906;28;20924;-51
2023/09/28 12:32:45;;;;;;;10.03;5.73;;;24.70;99.90;;;;;;4990253;28;20591;-53